Sao Pedro do Piaui, Brazil
Current Conditions -  °F | °C
As of 6:00 AM on Thursday 23 Oct 2014 (Local Time) from SBTE Reporting Station
Light Rain Light Rain  
Wind Chill: 79°   Ceiling: 2000
Heat Index: 82°   Visibility: 6mi
Dew Point: 72°   Wind: 0mph
Humidity: 78%   Direction: NA
Pressure: 29.88"   Gusts: NA
Location:  5.93°S, 42.72°W
Report Text: SBTE 230900Z 00000KT 9999 -RA BKN020 26/22 Q1012
Loading
Personal Weather Stations






























Interactive Weather Map New forecast layout! Learn more

10-Day Weather Forecast

Advertisements
Track Severe Weather on mobile